Nearby METAR Reports

 

KTTN - Trenton, New Jersey, USA
Distance from station: WNW 11mi, 17km
Updated: Wed, 21-Apr-2021 8:53pm EDT
Mostly cloudy
Mostly cloudy
 Wind from NW
Wind: NW 9 mph , 15 km/h, Gust: 26 mph , 43 km/h
Temperature: 43°F , 6°C
Wind Chill: 38°F , 3°C
Dew Point: 25°F , -4°C
Humidity: 49%
Barometer: 29.78 inHg , 1008.5 hPa
Clouds: Mostly cloudy
Visibility: 10 miles , 16 km
Cloud details: Mostly cloudy 6500 ft
2021/04/22 00:53 KTTN 220053Z 31008G23KT 10SM BKN065 06/M04 A2978 RMK AO2 SLP077 T00561039
KWRI - Wrightst/Mcguire, New Jersey, USA
Distance from station: SSE 14mi, 22km
Updated: Wed, 21-Apr-2021 8:56pm EDT
Mostly cloudy
Mostly cloudy
 Wind from NW
Wind: NW 13 mph , 20 km/h
Temperature: 43°F , 6°C
Wind Chill: 36°F , 2°C
Dew Point: 25°F , -4°C
Humidity: 49%
Barometer: 29.77 inHg , 1008.1 hPa
Clouds: Mostly cloudy
Visibility: 10 miles , 16 km
Cloud details: Mostly cloudy 6000 ft
2021/04/22 00:56 KWRI 220056Z AUTO 31011KT 10SM BKN060 06/M04 A2977 RMK AO2 PK WND 33026/03 SLP081 T00611038
 
KNEL - Lakehurst Nas, New Jersey, USA
Distance from station: SE 21mi, 34km
Updated: Wed, 21-Apr-2021 9:00pm EDT
Few Clouds
Few Clouds
 Wind from NW
Wind: NW 10 mph , 17 km/h, Gust: 24 mph , 39 km/h
Temperature: 54°F , 12°C
Dew Point: 27°F , -3°C
Humidity: 35%
Barometer: 29.78 inHg , 1008.5 hPa
Clouds: Few Clouds
Visibility: 10 miles , 16 km
Cloud details: Few Clouds 6500 ft
2021/04/22 01:00 KNEL 220100Z 32009G21KT 10SM FEW065 12/M03 A2978 RMK AO2 SLP080 T01171028
KPNE - Philadelphia/Ne, Pennsylvania, USA
Distance from station: WSW 22mi, 35km
Updated: Wed, 21-Apr-2021 8:54pm EDT
Overcast
Overcast
 Wind from NW
Wind: NW 18 mph , 30 km/h, Gust: 28 mph , 44 km/h
Temperature: 45°F , 7°C
Wind Chill: 37°F , 3°C
Dew Point: 27°F , -3°C
Humidity: 49%
Barometer: 29.81 inHg , 1009.5 hPa
Clouds: Overcast
Visibility: 10 miles , 16 km
Cloud details: Overcast 6500 ft
2021/04/22 00:54 KPNE 220054Z 31016G24KT 10SM OVC065 07/M03 A2981 RMK AO2 PK WND 32028/0037 SLP095 T00671028
 
KVAY - Mount Holly, New Jersey, USA
Distance from station: SSW 22mi, 35km
Updated: Wed, 21-Apr-2021 8:54pm EDT
Overcast
Overcast
 Wind from WNW
Wind: WNW 13 mph , 20 km/h, Gust: 25 mph , 41 km/h
Temperature: 46°F , 8°C
Wind Chill: 40°F , 4°C
Dew Point: 27°F , -3°C
Humidity: 46%
Barometer: 29.80 inHg , 1009.1 hPa
Clouds: Overcast
Visibility: 10 miles , 16 km
Cloud details: Few Clouds 5000 ft
Overcast 6500 ft
2021/04/22 00:54 KVAY 220054Z AUTO 30011G22KT 10SM FEW050 OVC065 08/M03 A2980 RMK AO2 SLP089 T00781033
KMJX - Toms River, New Jersey, USA
Distance from station: SE 26mi, 42km
Updated: Wed, 21-Apr-2021 8:56pm EDT
Clear
Clear
 Wind from NW
Wind: NW 10 mph , 17 km/h, Gust: 22 mph , 35 km/h
Temperature: 43°F , 6°C
Wind Chill: 37°F , 3°C
Dew Point: 27°F , -3°C
Humidity: 53%
Barometer: 29.78 inHg , 1008.5 hPa
Clouds: Clear
Visibility: 10 miles , 16 km
2021/04/22 00:56 KMJX 220056Z AUTO 31009G19KT 10SM CLR 06/M03 A2978 RMK AO2 PK WND 33028/0014 SLP088 T00611033
 
KDYL - Doylestown, Pennsylvania, USA
Distance from station: WNW 27mi, 43km
Updated: Wed, 21-Apr-2021 8:54pm EDT
Overcast
Overcast
 Wind from WNW
Wind: WNW 13 mph , 20 km/h, Gust: 23 mph , 37 km/h
Temperature: 43°F , 6°C
Wind Chill: 36°F , 2°C
Dew Point: 25°F , -4°C
Humidity: 49%
Barometer: 29.79 inHg , 1008.8 hPa
Clouds: Overcast
Visibility: 10 miles , 16 km
Cloud details: Partly cloudy 4300 ft
Overcast 5000 ft
2021/04/22 00:54 KDYL 220054Z AUTO 30011G20KT 10SM SCT043 OVC050 06/M04 A2979 RMK AO2 SLP089 T00611039
KBLM - Belmar/Farmdale, New Jersey, USA
Distance from station: E 28mi, 45km
Updated: Wed, 21-Apr-2021 8:56pm EDT
Overcast
Overcast
 Wind from NW
Wind: NW 22 mph , 35 km/h, Gust: 32 mph , 52 km/h
Temperature: 43°F , 6°C
Wind Chill: 34°F , 1°C
Dew Point: 25°F , -4°C
Humidity: 49%
Barometer: 29.76 inHg , 1007.8 hPa
Clouds: Overcast
Visibility: 10 miles , 16 km
Cloud details: Overcast 4700 ft
2021/04/22 00:56 KBLM 220056Z AUTO 31019G28KT 10SM OVC047 06/M04 A2976 RMK AO2 PK WND 29028/0054 SLP080 T00611039 PNO $
 
KSMQ - Somerville, New Jersey, USA
Distance from station: N 28mi, 45km
Updated: Wed, 21-Apr-2021 8:53pm EDT
Mostly cloudy
Mostly cloudy
 Wind from NW
Wind: NW 16 mph , 26 km/h, Gust: 24 mph , 39 km/h
Temperature: 43°F , 6°C
Wind Chill: 35°F , 2°C
Dew Point: 25°F , -4°C
Humidity: 49%
Barometer: 29.76 inHg , 1007.8 hPa
Clouds: Mostly cloudy
Visibility: 10 miles , 16 km
Cloud details: Mostly cloudy 5500 ft
2021/04/22 00:53 KSMQ 220053Z AUTO 32014G21KT 10SM BKN055 06/M04 A2976 RMK AO2 SLP079 T00611039
KLOM - Philly Wings F, Pennsylvania, USA
Distance from station: W 34mi, 54km
Updated: Wed, 21-Apr-2021 9:15pm EDT

 
2021/04/22 01:15 KLOM 220115Z AUTO RMK AO2 PWINO
 
KLDJ - Linden, New Jersey, USA
Distance from station: NE 35mi, 56km
Updated: Wed, 21-Apr-2021 9:15pm EDT
Overcast
Overcast
 Wind from NNW
Wind: NNW 18 mph , 30 km/h, Gust: 28 mph , 44 km/h
Temperature: 43°F , 6°C
Wind Chill: 35°F , 2°C
Dew Point: 23°F , -5°C
Humidity: 46%
Barometer: 29.78 inHg , 1008.5 hPa
Clouds: Overcast
Visibility: 10 miles , 16 km
Cloud details: Overcast 5000 ft
2021/04/22 01:15 KLDJ 220115Z AUTO 33016G24KT 10SM OVC050 06/M05 A2978 RMK AO2 T00601054
KCKZ - Perkasie, Pennsylvania, USA
Distance from station: WNW 36mi, 58km
Updated: Wed, 21-Apr-2021 9:15pm EDT
Overcast
Overcast
 Wind from WNW
Wind: WNW 10 mph , 17 km/h, Gust: 24 mph , 39 km/h
Temperature: 39°F , 4°C
Wind Chill: 32°F , 0°C
Dew Point: 28°F , -2°C
Humidity: 65%
Barometer: 29.82 inHg , 1009.8 hPa
Clouds: Overcast
Visibility: 10 miles , 16 km
Cloud details: Few Clouds 3500 ft
Mostly cloudy 4100 ft
Overcast 6500 ft
2021/04/22 01:15 KCKZ 220115Z AUTO 30009G21KT 260V350 10SM FEW035 BKN041 OVC065 04/M02 A2982 RMK AO2
 
KPHL - Philadelphia, Pennsylvania, USA
Distance from station: SW 40mi, 64km
Updated: Wed, 21-Apr-2021 8:54pm EDT
Overcast
Overcast
 Wind from NW
Wind: NW 16 mph , 26 km/h, Gust: 24 mph , 39 km/h
Temperature: 46°F , 8°C
Wind Chill: 39°F , 4°C
Dew Point: 25°F , -4°C
Humidity: 43%
Barometer: 29.81 inHg , 1009.5 hPa
Clouds: Overcast
Visibility: 10 miles , 16 km
Cloud details: Few Clouds 4900 ft
Overcast 6500 ft
2021/04/22 00:54 KPHL 220054Z 31014G21KT 10SM FEW049 OVC065 08/M04 A2981 RMK AO2 PK WND 33026/0027 SLP095 T00781039
KEWR - Newark, New Jersey, USA
Distance from station: NE 41mi, 66km
Updated: Wed, 21-Apr-2021 8:51pm EDT
Mostly cloudy
Mostly cloudy
 Wind from NW
Wind: NW 22 mph , 35 km/h, Gust: 35 mph , 56 km/h
Temperature: 45°F , 7°C
Wind Chill: 37°F , 3°C
Dew Point: 23°F , -5°C
Humidity: 42%
Barometer: 29.75 inHg , 1007.5 hPa
Clouds: Mostly cloudy
Visibility: 10 miles , 16 km
Cloud details: Mostly cloudy 4200 ft
Mostly cloudy 5500 ft
2021/04/22 00:51 KEWR 220051Z 32019G30KT 10SM BKN042 BKN055 07/M05 A2975 RMK AO2 PK WND 29033/0010 SLP074 T00671050
 
KMMU - Morristown Muni, New Jersey, USA
Distance from station: NNE 41mi, 66km
Updated: Wed, 21-Apr-2021 8:45pm EDT
Overcast
Overcast
 Wind from NNW
Wind: NNW 16 mph , 26 km/h, Gust: 29 mph , 46 km/h
Temperature: 41°F , 5°C
Wind Chill: 33°F , 1°C
Dew Point: 27°F , -3°C
Humidity: 57%
Barometer: 29.77 inHg , 1008.1 hPa
Clouds: Overcast
Visibility: 10 miles , 16 km
Cloud details: Partly cloudy 4400 ft
Overcast 6000 ft
2021/04/22 00:45 KMMU 220045Z 34014G25KT 10SM SCT044 OVC060 05/M03 A2977
KUKT - Quakertown Arp, Pennsylvania, USA
Distance from station: WNW 42mi, 68km
Updated: Wed, 21-Apr-2021 9:15pm EDT
Mostly cloudy
Mostly cloudy
 Wind from W
Wind: W 8 mph , 13 km/h
Temperature: 39°F , 4°C
Wind Chill: 33°F , 1°C
Dew Point: 28°F , -2°C
Humidity: 65%
Barometer: 29.82 inHg , 1009.8 hPa
Clouds: Mostly cloudy
Visibility: 10 miles , 16 km
Cloud details: Few Clouds 3500 ft
Mostly cloudy 4200 ft
Mostly cloudy 4800 ft
2021/04/22 01:15 KUKT 220115Z AUTO 26007KT 10SM FEW035 BKN042 BKN048 04/M02 A2982 RMK A01
 
KJRB - Manhattan/Dwntwn, New York, USA
Distance from station: NE 47mi, 75km
Updated: Wed, 21-Apr-2021 8:56pm EDT
Overcast
Overcast
 Wind from NW
Wind: NW 9 mph , 15 km/h
Temperature: 45°F , 7°C
Wind Chill: 40°F , 4°C
Dew Point: 27°F , -3°C
Humidity: 49%
Barometer: 29.76 inHg , 1007.8 hPa
Clouds: Overcast
Visibility: 10 miles , 16 km
Cloud details: Overcast 4500 ft
2021/04/22 00:56 KJRB 220056Z AUTO 32008KT 250V360 10SM OVC045 07/M03 A2976 RMK AO2 SLP076 T00671033 $
KPTW - Pottstown, Pennsylvania, USA
Distance from station: W 48mi, 77km
Updated: Wed, 21-Apr-2021 8:54pm EDT
Overcast
Overcast
 Wind from WNW
Wind: WNW 17 mph , 28 km/h, Gust: 28 mph , 44 km/h
Temperature: 39°F , 4°C
Wind Chill: 30°F , -1°C
Dew Point: 25°F , -4°C
Humidity: 56%
Barometer: 29.84 inHg , 1010.5 hPa
Clouds: Overcast
Visibility: 10 miles , 16 km
Cloud details: Partly cloudy 4300 ft
Mostly cloudy 5000 ft
Overcast 7000 ft
2021/04/22 00:54 KPTW 220054Z AUTO 30015G24KT 10SM SCT043 BKN050 OVC070 04/M04 A2984 RMK AO2 SLP102 T00441039
 
KCDW - Caldwell, New Jersey, USA
Distance from station: NNE 50mi, 80km
Updated: Wed, 21-Apr-2021 8:53pm EDT
Overcast
Overcast
 Wind from NW
Wind: NW 14 mph , 22 km/h, Gust: 25 mph , 41 km/h
Temperature: 43°F , 6°C
Wind Chill: 36°F , 2°C
Dew Point: 23°F , -5°C
Humidity: 46%
Barometer: 29.77 inHg , 1008.1 hPa
Clouds: Overcast
Visibility: 10 miles , 16 km
Cloud details: Overcast 4700 ft
2021/04/22 00:53 KCDW 220053Z 31012G22KT 10SM OVC047 06/M05 A2977 RMK AO2 SLP084 T00611050